Keansburg, New Jersey
Current Conditions -  °F | °C
As of 6:55 PM on Saturday 25 Oct 2014 (Local Time) from KLDJ Reporting Station
Clear Clear  
Wind Chill: 68°   Ceiling: Unl
Heat Index: 68°   Visibility: 10mi
Dew Point: 46°   Wind: 3mph
Humidity: 44%   Direction: 250°WSW
Pressure: 29.67"   Gusts: NA
Location:  40.44°N, 74.13°W
Report Text: KLDJ 252255Z AUTO 25003KT 10SM CLR 20/08 A2967 RMK AO2 T02000075
Loading
Personal Weather Stations






























Interactive Weather Map
Tropical Storm Tracking
New forecast layout! Learn more

10-Day Weather Forecast

Advertisements
Track Severe Weather on mobile